sensor_id;sensor_type;location;lat;lon;timestamp;P1;durP1;ratioP1;P2;durP2;ratioP2
43327;SDS011;28923;45.412;10.852;2022-10-31T00:01:09;2.42;;;1.85;;
43327;SDS011;28923;45.412;10.852;2022-10-31T00:03:34;3.17;;;1.75;;
43327;SDS011;28923;45.412;10.852;2022-10-31T00:06:00;2.42;;;1.90;;
43327;SDS011;28923;45.412;10.852;2022-10-31T00:08:26;3.13;;;2.10;;
43327;SDS011;28923;45.412;10.852;2022-10-31T00:10:52;2.55;;;1.70;;
43327;SDS011;28923;45.412;10.852;2022-10-31T00:13:17;1.85;;;1.65;;
43327;SDS011;28923;45.412;10.852;2022-10-31T00:15:43;4.20;;;1.83;;
43327;SDS011;28923;45.412;10.852;2022-10-31T00:18:09;3.38;;;1.65;;
43327;SDS011;28923;45.412;10.852;2022-10-31T00:20:34;2.30;;;1.77;;
43327;SDS011;28923;45.412;10.852;2022-10-31T00:23:00;2.70;;;1.90;;
43327;SDS011;28923;45.412;10.852;2022-10-31T00:25:25;1.98;;;1.67;;
43327;SDS011;28923;45.412;10.852;2022-10-31T00:27:51;1.77;;;1.58;;
43327;SDS011;28923;45.412;10.852;2022-10-31T00:30:16;2.70;;;1.70;;
43327;SDS011;28923;45.412;10.852;2022-10-31T00:32:42;1.55;;;1.42;;
43327;SDS011;28923;45.412;10.852;2022-10-31T00:35:08;2.55;;;1.77;;
43327;SDS011;28923;45.412;10.852;2022-10-31T00:37:33;4.43;;;1.95;;
43327;SDS011;28923;45.412;10.852;2022-10-31T00:39:59;3.20;;;1.63;;
43327;SDS011;28923;45.412;10.852;2022-10-31T00:42:24;2.88;;;1.63;;
43327;SDS011;28923;45.412;10.852;2022-10-31T00:44:50;2.03;;;1.80;;
43327;SDS011;28923;45.412;10.852;2022-10-31T00:47:15;2.85;;;2.00;;
43327;SDS011;28923;45.412;10.852;2022-10-31T00:49:40;2.35;;;2.05;;
43327;SDS011;28923;45.412;10.852;2022-10-31T00:52:06;1.85;;;1.50;;
43327;SDS011;28923;45.412;10.852;2022-10-31T00:54:32;2.97;;;1.73;;
43327;SDS011;28923;45.412;10.852;2022-10-31T00:56:57;2.40;;;1.80;;
43327;SDS011;28923;45.412;10.852;2022-10-31T00:59:23;3.03;;;1.63;;
43327;SDS011;28923;45.412;10.852;2022-10-31T01:01:49;1.73;;;1.35;;
43327;SDS011;28923;45.412;10.852;2022-10-31T01:04:15;3.88;;;1.80;;
43327;SDS011;28923;45.412;10.852;2022-10-31T01:06:40;1.45;;;1.35;;
43327;SDS011;28923;45.412;10.852;2022-10-31T01:09:06;2.88;;;1.60;;
43327;SDS011;28923;45.412;10.852;2022-10-31T01:11:31;3.08;;;1.70;;
43327;SDS011;28923;45.412;10.852;2022-10-31T01:13:57;2.33;;;1.73;;
43327;SDS011;28923;45.412;10.852;2022-10-31T01:16:23;2.00;;;1.50;;
43327;SDS011;28923;45.412;10.852;2022-10-31T01:18:49;3.03;;;1.90;;
43327;SDS011;28923;45.412;10.852;2022-10-31T01:21:16;2.92;;;1.88;;
43327;SDS011;28923;45.412;10.852;2022-10-31T01:23:42;3.25;;;1.75;;
43327;SDS011;28923;45.412;10.852;2022-10-31T01:28:33;2.67;;;1.73;;
43327;SDS011;28923;45.412;10.852;2022-10-31T01:31:03;2.17;;;1.75;;
43327;SDS011;28923;45.412;10.852;2022-10-31T01:33:28;2.60;;;1.60;;
43327;SDS011;28923;45.412;10.852;2022-10-31T01:35:54;2.90;;;1.75;;
43327;SDS011;28923;45.412;10.852;2022-10-31T01:38:19;2.45;;;1.45;;
43327;SDS011;28923;45.412;10.852;2022-10-31T01:40:44;2.05;;;1.60;;
43327;SDS011;28923;45.412;10.852;2022-10-31T01:43:13;2.55;;;1.80;;
43327;SDS011;28923;45.412;10.852;2022-10-31T01:45:39;1.98;;;1.63;;
43327;SDS011;28923;45.412;10.852;2022-10-31T01:48:04;2.47;;;1.60;;
43327;SDS011;28923;45.412;10.852;2022-10-31T01:50:34;3.45;;;1.60;;
43327;SDS011;28923;45.412;10.852;2022-10-31T01:53:01;2.35;;;1.77;;
43327;SDS011;28923;45.412;10.852;2022-10-31T01:55:28;2.78;;;1.50;;
43327;SDS011;28923;45.412;10.852;2022-10-31T01:57:55;2.47;;;1.70;;
43327;SDS011;28923;45.412;10.852;2022-10-31T02:00:23;2.15;;;1.40;;
43327;SDS011;28923;45.412;10.852;2022-10-31T02:02:49;1.75;;;1.45;;
43327;SDS011;28923;45.412;10.852;2022-10-31T02:05:16;2.58;;;1.52;;
43327;SDS011;28923;45.412;10.852;2022-10-31T02:10:07;3.08;;;1.73;;
43327;SDS011;28923;45.412;10.852;2022-10-31T02:12:33;2.22;;;1.50;;
43327;SDS011;28923;45.412;10.852;2022-10-31T02:15:01;2.72;;;1.83;;
43327;SDS011;28923;45.412;10.852;2022-10-31T02:17:26;2.25;;;1.83;;
43327;SDS011;28923;45.412;10.852;2022-10-31T02:20:14;2.10;;;1.80;;
43327;SDS011;28923;45.412;10.852;2022-10-31T02:30:20;2.15;;;1.58;;
43327;SDS011;28923;45.412;10.852;2022-10-31T02:32:52;2.25;;;1.80;;
43327;SDS011;28923;45.412;10.852;2022-10-31T02:38:10;2.70;;;1.95;;
43327;SDS011;28923;45.412;10.852;2022-10-31T02:46:01;2.47;;;1.92;;
43327;SDS011;28923;45.412;10.852;2022-10-31T02:48:33;2.97;;;1.77;;
43327;SDS011;28923;45.412;10.852;2022-10-31T02:51:02;2.90;;;2.00;;
43327;SDS011;28923;45.412;10.852;2022-10-31T02:53:31;2.10;;;1.40;;
43327;SDS011;28923;45.412;10.852;2022-10-31T02:56:18;2.28;;;1.80;;
43327;SDS011;28923;45.412;10.852;2022-10-31T03:01:17;2.65;;;1.70;;
43327;SDS011;28923;45.412;10.852;2022-10-31T03:12:22;2.97;;;1.40;;
43327;SDS011;28923;45.412;10.852;2022-10-31T03:17:28;1.58;;;1.23;;
43327;SDS011;28923;45.412;10.852;2022-10-31T03:19:57;2.50;;;1.65;;
43327;SDS011;28923;45.412;10.852;2022-10-31T03:22:26;2.63;;;1.58;;
43327;SDS011;28923;45.412;10.852;2022-10-31T03:24:52;3.35;;;1.63;;
43327;SDS011;28923;45.412;10.852;2022-10-31T03:27:21;2.38;;;1.67;;
43327;SDS011;28923;45.412;10.852;2022-10-31T03:29:48;2.03;;;1.40;;
43327;SDS011;28923;45.412;10.852;2022-10-31T03:32:57;2.42;;;1.40;;
43327;SDS011;28923;45.412;10.852;2022-10-31T03:35:03;3.42;;;1.67;;
43327;SDS011;28923;45.412;10.852;2022-10-31T03:37:31;2.47;;;1.63;;
43327;SDS011;28923;45.412;10.852;2022-10-31T03:39:58;2.25;;;1.50;;
43327;SDS011;28923;45.412;10.852;2022-10-31T03:42:25;2.22;;;1.52;;
43327;SDS011;28923;45.412;10.852;2022-10-31T03:45:02;2.78;;;1.70;;
43327;SDS011;28923;45.412;10.852;2022-10-31T03:47:29;2.53;;;1.63;;
43327;SDS011;28923;45.412;10.852;2022-10-31T03:49:55;1.92;;;1.60;;
43327;SDS011;28923;45.412;10.852;2022-10-31T03:52:26;1.35;;;1.20;;
43327;SDS011;28923;45.412;10.852;2022-10-31T03:54:56;2.10;;;1.60;;
43327;SDS011;28923;45.412;10.852;2022-10-31T03:57:30;2.30;;;1.70;;
43327;SDS011;28923;45.412;10.852;2022-10-31T04:00:03;2.67;;;1.38;;
43327;SDS011;28923;45.412;10.852;2022-10-31T04:02:32;1.88;;;1.33;;
43327;SDS011;28923;45.412;10.852;2022-10-31T04:04:59;2.60;;;1.50;;
43327;SDS011;28923;45.412;10.852;2022-10-31T04:07:27;2.20;;;1.42;;
43327;SDS011;28923;45.412;10.852;2022-10-31T04:09:53;2.88;;;1.60;;
43327;SDS011;28923;45.412;10.852;2022-10-31T04:12:20;2.25;;;1.50;;
43327;SDS011;28923;45.412;10.852;2022-10-31T04:15:14;2.13;;;1.50;;
43327;SDS011;28923;45.412;10.852;2022-10-31T04:17:41;2.78;;;1.70;;
43327;SDS011;28923;45.412;10.852;2022-10-31T04:20:07;1.95;;;1.42;;
43327;SDS011;28923;45.412;10.852;2022-10-31T04:22:33;2.78;;;1.60;;
43327;SDS011;28923;45.412;10.852;2022-10-31T04:24:59;2.60;;;1.88;;
43327;SDS011;28923;45.412;10.852;2022-10-31T04:27:25;1.92;;;1.45;;
43327;SDS011;28923;45.412;10.852;2022-10-31T04:29:51;2.60;;;1.83;;
43327;SDS011;28923;45.412;10.852;2022-10-31T04:32:17;2.78;;;1.88;;
43327;SDS011;28923;45.412;10.852;2022-10-31T04:34:43;1.88;;;1.67;;
43327;SDS011;28923;45.412;10.852;2022-10-31T04:37:09;3.10;;;1.80;;
43327;SDS011;28923;45.412;10.852;2022-10-31T04:39:35;2.58;;;1.80;;
43327;SDS011;28923;45.412;10.852;2022-10-31T04:42:20;2.33;;;1.88;;
43327;SDS011;28923;45.412;10.852;2022-10-31T04:44:46;1.85;;;1.55;;
43327;SDS011;28923;45.412;10.852;2022-10-31T04:47:13;1.88;;;1.35;;
43327;SDS011;28923;45.412;10.852;2022-10-31T04:49:38;2.90;;;1.55;;
43327;SDS011;28923;45.412;10.852;2022-10-31T04:52:04;3.58;;;1.80;;
43327;SDS011;28923;45.412;10.852;2022-10-31T04:54:29;2.38;;;1.75;;
43327;SDS011;28923;45.412;10.852;2022-10-31T04:57:14;3.45;;;2.00;;
43327;SDS011;28923;45.412;10.852;2022-10-31T04:59:41;5.15;;;1.90;;
43327;SDS011;28923;45.412;10.852;2022-10-31T05:02:07;1.98;;;1.55;;
43327;SDS011;28923;45.412;10.852;2022-10-31T05:04:54;2.58;;;1.65;;
43327;SDS011;28923;45.412;10.852;2022-10-31T05:07:19;2.00;;;1.63;;
43327;SDS011;28923;45.412;10.852;2022-10-31T05:09:46;2.13;;;1.55;;
43327;SDS011;28923;45.412;10.852;2022-10-31T05:12:12;1.98;;;1.65;;
43327;SDS011;28923;45.412;10.852;2022-10-31T05:15:07;2.47;;;1.50;;
43327;SDS011;28923;45.412;10.852;2022-10-31T05:17:33;3.58;;;1.85;;
43327;SDS011;28923;45.412;10.852;2022-10-31T05:20:22;1.77;;;1.60;;
43327;SDS011;28923;45.412;10.852;2022-10-31T05:23:06;1.70;;;1.35;;
43327;SDS011;28923;45.412;10.852;2022-10-31T05:25:32;1.75;;;1.45;;
43327;SDS011;28923;45.412;10.852;2022-10-31T05:28:00;1.95;;;1.73;;
43327;SDS011;28923;45.412;10.852;2022-10-31T05:30:30;2.13;;;1.73;;
43327;SDS011;28923;45.412;10.852;2022-10-31T05:32:56;2.53;;;1.55;;
43327;SDS011;28923;45.412;10.852;2022-10-31T05:35:40;1.58;;;1.27;;
43327;SDS011;28923;45.412;10.852;2022-10-31T05:38:24;3.83;;;1.75;;
43327;SDS011;28923;45.412;10.852;2022-10-31T05:40:53;1.88;;;1.63;;
43327;SDS011;28923;45.412;10.852;2022-10-31T05:43:19;2.33;;;1.55;;
43327;SDS011;28923;45.412;10.852;2022-10-31T05:45:46;2.55;;;1.60;;
43327;SDS011;28923;45.412;10.852;2022-10-31T05:48:28;3.03;;;1.80;;
43327;SDS011;28923;45.412;10.852;2022-10-31T05:51:26;2.97;;;1.42;;
43327;SDS011;28923;45.412;10.852;2022-10-31T05:53:51;3.95;;;1.85;;
43327;SDS011;28923;45.412;10.852;2022-10-31T05:56:17;3.53;;;1.75;;
43327;SDS011;28923;45.412;10.852;2022-10-31T05:58:42;2.97;;;1.58;;
43327;SDS011;28923;45.412;10.852;2022-10-31T06:01:08;4.10;;;1.60;;
43327;SDS011;28923;45.412;10.852;2022-10-31T06:03:33;4.22;;;1.63;;
43327;SDS011;28923;45.412;10.852;2022-10-31T06:06:01;3.45;;;1.45;;
43327;SDS011;28923;45.412;10.852;2022-10-31T06:08:39;6.70;;;2.00;;
43327;SDS011;28923;45.412;10.852;2022-10-31T06:11:10;10.55;;;2.20;;
43327;SDS011;28923;45.412;10.852;2022-10-31T06:13:54;2.80;;;1.60;;
43327;SDS011;28923;45.412;10.852;2022-10-31T06:16:29;5.40;;;1.92;;
43327;SDS011;28923;45.412;10.852;2022-10-31T06:18:59;4.38;;;1.67;;
43327;SDS011;28923;45.412;10.852;2022-10-31T06:21:25;5.68;;;2.00;;
43327;SDS011;28923;45.412;10.852;2022-10-31T06:23:50;3.78;;;1.75;;
43327;SDS011;28923;45.412;10.852;2022-10-31T06:26:35;5.22;;;1.90;;
43327;SDS011;28923;45.412;10.852;2022-10-31T06:29:01;5.15;;;2.15;;
43327;SDS011;28923;45.412;10.852;2022-10-31T06:31:52;4.07;;;1.70;;
43327;SDS011;28923;45.412;10.852;2022-10-31T06:34:17;2.92;;;1.63;;
43327;SDS011;28923;45.412;10.852;2022-10-31T06:36:45;3.25;;;1.67;;
43327;SDS011;28923;45.412;10.852;2022-10-31T06:39:11;4.47;;;1.98;;
43327;SDS011;28923;45.412;10.852;2022-10-31T06:41:36;3.08;;;1.50;;
43327;SDS011;28923;45.412;10.852;2022-10-31T06:44:02;3.20;;;1.88;;
43327;SDS011;28923;45.412;10.852;2022-10-31T06:46:53;5.28;;;1.70;;
43327;SDS011;28923;45.412;10.852;2022-10-31T06:49:32;2.50;;;1.48;;
43327;SDS011;28923;45.412;10.852;2022-10-31T06:52:01;4.03;;;1.73;;
43327;SDS011;28923;45.412;10.852;2022-10-31T06:54:26;3.42;;;1.70;;
43327;SDS011;28923;45.412;10.852;2022-10-31T06:56:53;4.60;;;1.58;;
43327;SDS011;28923;45.412;10.852;2022-10-31T06:59:18;3.60;;;1.70;;
43327;SDS011;28923;45.412;10.852;2022-10-31T07:02:04;2.88;;;1.27;;
43327;SDS011;28923;45.412;10.852;2022-10-31T07:04:30;3.15;;;1.95;;
43327;SDS011;28923;45.412;10.852;2022-10-31T07:06:55;5.38;;;2.10;;
43327;SDS011;28923;45.412;10.852;2022-10-31T07:09:21;4.45;;;1.75;;
43327;SDS011;28923;45.412;10.852;2022-10-31T07:11:46;3.15;;;1.67;;
43327;SDS011;28923;45.412;10.852;2022-10-31T07:14:12;5.97;;;1.90;;
43327;SDS011;28923;45.412;10.852;2022-10-31T07:16:38;5.55;;;1.90;;
43327;SDS011;28923;45.412;10.852;2022-10-31T07:19:04;5.55;;;1.80;;
43327;SDS011;28923;45.412;10.852;2022-10-31T07:21:30;4.57;;;2.03;;
43327;SDS011;28923;45.412;10.852;2022-10-31T07:23:55;7.55;;;2.00;;
43327;SDS011;28923;45.412;10.852;2022-10-31T07:26:41;2.88;;;1.70;;
43327;SDS011;28923;45.412;10.852;2022-10-31T07:29:08;4.97;;;2.00;;
43327;SDS011;28923;45.412;10.852;2022-10-31T07:31:33;3.90;;;2.03;;
43327;SDS011;28923;45.412;10.852;2022-10-31T07:34:04;5.57;;;1.70;;
43327;SDS011;28923;45.412;10.852;2022-10-31T07:36:58;4.25;;;1.83;;
43327;SDS011;28923;45.412;10.852;2022-10-31T07:39:24;4.28;;;1.80;;
43327;SDS011;28923;45.412;10.852;2022-10-31T07:41:50;4.50;;;2.00;;
43327;SDS011;28923;45.412;10.852;2022-10-31T07:44:17;4.10;;;1.67;;
43327;SDS011;28923;45.412;10.852;2022-10-31T07:47:01;3.58;;;1.58;;
43327;SDS011;28923;45.412;10.852;2022-10-31T07:49:45;4.40;;;2.15;;
43327;SDS011;28923;45.412;10.852;2022-10-31T07:52:29;2.70;;;1.85;;
43327;SDS011;28923;45.412;10.852;2022-10-31T07:55:13;3.88;;;1.73;;
43327;SDS011;28923;45.412;10.852;2022-10-31T07:57:39;4.30;;;1.60;;
43327;SDS011;28923;45.412;10.852;2022-10-31T08:00:06;3.70;;;1.52;;
43327;SDS011;28923;45.412;10.852;2022-10-31T08:02:40;4.97;;;2.03;;
43327;SDS011;28923;45.412;10.852;2022-10-31T08:05:28;4.00;;;1.80;;
43327;SDS011;28923;45.412;10.852;2022-10-31T08:08:12;4.30;;;1.85;;
43327;SDS011;28923;45.412;10.852;2022-10-31T08:10:38;3.03;;;1.95;;
43327;SDS011;28923;45.412;10.852;2022-10-31T08:13:07;3.78;;;1.73;;
43327;SDS011;28923;45.412;10.852;2022-10-31T08:15:33;2.67;;;1.73;;
43327;SDS011;28923;45.412;10.852;2022-10-31T08:18:02;4.57;;;1.92;;
43327;SDS011;28923;45.412;10.852;2022-10-31T08:20:28;2.53;;;1.67;;
43327;SDS011;28923;45.412;10.852;2022-10-31T08:23:01;1.98;;;1.48;;
43327;SDS011;28923;45.412;10.852;2022-10-31T08:25:28;3.22;;;1.70;;
43327;SDS011;28923;45.412;10.852;2022-10-31T08:27:55;4.25;;;1.88;;
43327;SDS011;28923;45.412;10.852;2022-10-31T08:30:21;4.28;;;1.60;;
43327;SDS011;28923;45.412;10.852;2022-10-31T08:33:14;3.88;;;1.90;;
43327;SDS011;28923;45.412;10.852;2022-10-31T08:36:15;5.03;;;1.85;;
43327;SDS011;28923;45.412;10.852;2022-10-31T08:38:53;3.50;;;1.90;;
43327;SDS011;28923;45.412;10.852;2022-10-31T08:41:19;2.92;;;1.83;;
43327;SDS011;28923;45.412;10.852;2022-10-31T08:43:44;3.83;;;1.95;;
43327;SDS011;28923;45.412;10.852;2022-10-31T08:46:11;2.83;;;1.77;;
43327;SDS011;28923;45.412;10.852;2022-10-31T08:48:38;3.90;;;1.83;;
43327;SDS011;28923;45.412;10.852;2022-10-31T08:51:04;4.55;;;1.90;;
43327;SDS011;28923;45.412;10.852;2022-10-31T08:53:30;5.40;;;2.20;;
43327;SDS011;28923;45.412;10.852;2022-10-31T08:56:14;3.78;;;1.75;;
43327;SDS011;28923;45.412;10.852;2022-10-31T08:58:40;5.40;;;2.20;;
43327;SDS011;28923;45.412;10.852;2022-10-31T09:01:05;6.88;;;2.20;;
43327;SDS011;28923;45.412;10.852;2022-10-31T09:03:31;4.65;;;1.90;;
43327;SDS011;28923;45.412;10.852;2022-10-31T09:05:59;5.05;;;2.33;;
43327;SDS011;28923;45.412;10.852;2022-10-31T09:08:28;5.13;;;2.38;;
43327;SDS011;28923;45.412;10.852;2022-10-31T09:10:55;5.03;;;2.15;;
43327;SDS011;28923;45.412;10.852;2022-10-31T09:13:40;3.83;;;2.65;;
43327;SDS011;28923;45.412;10.852;2022-10-31T09:16:24;3.97;;;1.92;;
43327;SDS011;28923;45.412;10.852;2022-10-31T09:18:49;4.68;;;2.30;;
43327;SDS011;28923;45.412;10.852;2022-10-31T09:21:15;6.18;;;2.53;;
43327;SDS011;28923;45.412;10.852;2022-10-31T09:23:41;5.22;;;2.70;;
43327;SDS011;28923;45.412;10.852;2022-10-31T09:26:07;3.60;;;2.10;;
43327;SDS011;28923;45.412;10.852;2022-10-31T09:28:39;2.58;;;1.83;;
43327;SDS011;28923;45.412;10.852;2022-10-31T09:31:07;3.28;;;2.20;;
43327;SDS011;28923;45.412;10.852;2022-10-31T09:33:50;4.57;;;2.00;;
43327;SDS011;28923;45.412;10.852;2022-10-31T09:36:38;2.38;;;1.60;;
43327;SDS011;28923;45.412;10.852;2022-10-31T09:39:13;4.32;;;2.17;;
43327;SDS011;28923;45.412;10.852;2022-10-31T09:44:08;3.97;;;1.95;;
43327;SDS011;28923;45.412;10.852;2022-10-31T09:54:32;5.18;;;2.20;;
43327;SDS011;28923;45.412;10.852;2022-10-31T09:56:58;5.55;;;1.85;;
43327;SDS011;28923;45.412;10.852;2022-10-31T09:59:28;4.72;;;2.10;;
43327;SDS011;28923;45.412;10.852;2022-10-31T10:01:56;3.70;;;1.83;;
43327;SDS011;28923;45.412;10.852;2022-10-31T10:10:17;5.40;;;2.50;;
43327;SDS011;28923;45.412;10.852;2022-10-31T10:18:00;5.35;;;2.80;;
43327;SDS011;28923;45.412;10.852;2022-10-31T10:25:57;3.85;;;2.22;;
43327;SDS011;28923;45.412;10.852;2022-10-31T10:28:27;3.90;;;2.17;;
43327;SDS011;28923;45.412;10.852;2022-10-31T10:30:57;4.10;;;2.70;;
43327;SDS011;28923;45.412;10.852;2022-10-31T10:33:25;4.97;;;2.33;;
43327;SDS011;28923;45.412;10.852;2022-10-31T10:35:55;4.88;;;2.58;;
43327;SDS011;28923;45.412;10.852;2022-10-31T10:38:39;5.72;;;2.60;;
43327;SDS011;28923;45.412;10.852;2022-10-31T10:41:11;9.60;;;3.30;;
43327;SDS011;28923;45.412;10.852;2022-10-31T10:43:39;6.13;;;2.75;;
43327;SDS011;28923;45.412;10.852;2022-10-31T10:49:10;4.28;;;2.58;;
43327;SDS011;28923;45.412;10.852;2022-10-31T10:51:38;7.15;;;3.10;;
43327;SDS011;28923;45.412;10.852;2022-10-31T10:59:13;5.22;;;2.75;;
43327;SDS011;28923;45.412;10.852;2022-10-31T11:01:41;7.95;;;2.70;;
43327;SDS011;28923;45.412;10.852;2022-10-31T11:04:14;5.90;;;2.47;;
43327;SDS011;28923;45.412;10.852;2022-10-31T11:06:55;7.38;;;2.60;;
43327;SDS011;28923;45.412;10.852;2022-10-31T11:09:21;9.95;;;3.22;;
43327;SDS011;28923;45.412;10.852;2022-10-31T11:11:46;7.45;;;2.92;;
43327;SDS011;28923;45.412;10.852;2022-10-31T11:14:12;7.97;;;2.90;;
43327;SDS011;28923;45.412;10.852;2022-10-31T11:16:40;8.95;;;2.67;;
43327;SDS011;28923;45.412;10.852;2022-10-31T11:21:37;9.60;;;4.03;;
43327;SDS011;28923;45.412;10.852;2022-10-31T11:26:28;8.00;;;3.13;;
43327;SDS011;28923;45.412;10.852;2022-10-31T11:28:57;9.13;;;2.83;;
43327;SDS011;28923;45.412;10.852;2022-10-31T11:31:22;8.07;;;2.85;;
43327;SDS011;28923;45.412;10.852;2022-10-31T11:33:49;10.55;;;2.78;;
43327;SDS011;28923;45.412;10.852;2022-10-31T11:36:24;6.57;;;2.90;;
43327;SDS011;28923;45.412;10.852;2022-10-31T11:38:51;9.80;;;3.45;;
43327;SDS011;28923;45.412;10.852;2022-10-31T11:41:17;8.00;;;3.15;;
43327;SDS011;28923;45.412;10.852;2022-10-31T11:43:50;7.60;;;3.05;;
43327;SDS011;28923;45.412;10.852;2022-10-31T11:46:38;9.25;;;3.50;;
43327;SDS011;28923;45.412;10.852;2022-10-31T11:49:02;7.72;;;3.00;;
43327;SDS011;28923;45.412;10.852;2022-10-31T11:51:30;9.30;;;3.15;;
43327;SDS011;28923;45.412;10.852;2022-10-31T11:53:59;8.45;;;2.58;;
43327;SDS011;28923;45.412;10.852;2022-10-31T11:56:27;9.00;;;3.05;;
43327;SDS011;28923;45.412;10.852;2022-10-31T11:59:00;7.03;;;3.20;;
43327;SDS011;28923;45.412;10.852;2022-10-31T12:01:30;6.63;;;3.17;;
43327;SDS011;28923;45.412;10.852;2022-10-31T12:04:11;11.13;;;3.00;;
43327;SDS011;28923;45.412;10.852;2022-10-31T12:06:40;9.48;;;2.97;;
43327;SDS011;28923;45.412;10.852;2022-10-31T12:09:17;6.05;;;2.88;;
43327;SDS011;28923;45.412;10.852;2022-10-31T12:11:52;7.57;;;3.03;;
43327;SDS011;28923;45.412;10.852;2022-10-31T12:16:52;7.57;;;3.03;;
43327;SDS011;28923;45.412;10.852;2022-10-31T12:19:24;4.90;;;2.70;;
43327;SDS011;28923;45.412;10.852;2022-10-31T12:24:23;10.95;;;3.13;;
43327;SDS011;28923;45.412;10.852;2022-10-31T12:26:55;8.60;;;2.80;;
43327;SDS011;28923;45.412;10.852;2022-10-31T12:34:53;7.90;;;2.67;;
43327;SDS011;28923;45.412;10.852;2022-10-31T12:37:38;6.53;;;2.83;;
43327;SDS011;28923;45.412;10.852;2022-10-31T12:40:19;6.13;;;2.40;;
43327;SDS011;28923;45.412;10.852;2022-10-31T12:45:49;7.65;;;2.63;;
43327;SDS011;28923;45.412;10.852;2022-10-31T12:50:52;5.90;;;2.45;;
43327;SDS011;28923;45.412;10.852;2022-10-31T12:58:41;4.20;;;2.50;;
43327;SDS011;28923;45.412;10.852;2022-10-31T13:01:22;6.38;;;2.58;;
43327;SDS011;28923;45.412;10.852;2022-10-31T13:06:35;4.13;;;2.20;;
43327;SDS011;28923;45.412;10.852;2022-10-31T13:09:02;6.15;;;2.33;;
43327;SDS011;28923;45.412;10.852;2022-10-31T13:16:32;7.47;;;2.50;;
43327;SDS011;28923;45.412;10.852;2022-10-31T13:22:20;5.05;;;2.55;;
43327;SDS011;28923;45.412;10.852;2022-10-31T13:24:50;3.80;;;1.98;;
43327;SDS011;28923;45.412;10.852;2022-10-31T13:27:13;5.45;;;2.13;;
43327;SDS011;28923;45.412;10.852;2022-10-31T13:30:22;4.30;;;2.53;;
43327;SDS011;28923;45.412;10.852;2022-10-31T13:32:30;3.85;;;2.47;;
43327;SDS011;28923;45.412;10.852;2022-10-31T13:35:01;6.85;;;2.10;;
43327;SDS011;28923;45.412;10.852;2022-10-31T13:38:03;3.10;;;2.10;;
43327;SDS011;28923;45.412;10.852;2022-10-31T13:45:13;4.07;;;2.03;;
43327;SDS011;28923;45.412;10.852;2022-10-31T13:47:40;5.35;;;2.20;;
43327;SDS011;28923;45.412;10.852;2022-10-31T13:50:18;5.55;;;2.35;;
43327;SDS011;28923;45.412;10.852;2022-10-31T13:52:44;3.97;;;2.10;;
43327;SDS011;28923;45.412;10.852;2022-10-31T13:57:54;4.93;;;2.00;;
43327;SDS011;28923;45.412;10.852;2022-10-31T14:02:46;4.28;;;2.03;;
43327;SDS011;28923;45.412;10.852;2022-10-31T14:05:25;3.03;;;2.03;;
43327;SDS011;28923;45.412;10.852;2022-10-31T14:07:54;5.05;;;2.08;;
43327;SDS011;28923;45.412;10.852;2022-10-31T14:12:47;4.35;;;2.13;;
43327;SDS011;28923;45.412;10.852;2022-10-31T14:15:57;3.88;;;2.20;;
43327;SDS011;28923;45.412;10.852;2022-10-31T14:18:05;4.22;;;2.22;;
43327;SDS011;28923;45.412;10.852;2022-10-31T14:20:41;6.70;;;2.08;;
43327;SDS011;28923;45.412;10.852;2022-10-31T14:25:52;3.25;;;2.00;;
43327;SDS011;28923;45.412;10.852;2022-10-31T14:28:19;3.97;;;2.05;;
43327;SDS011;28923;45.412;10.852;2022-10-31T14:30:54;4.13;;;2.10;;
43327;SDS011;28923;45.412;10.852;2022-10-31T14:33:22;4.13;;;2.00;;
43327;SDS011;28923;45.412;10.852;2022-10-31T14:35:56;5.65;;;2.30;;
43327;SDS011;28923;45.412;10.852;2022-10-31T14:38:27;5.05;;;2.50;;
43327;SDS011;28923;45.412;10.852;2022-10-31T14:51:02;5.40;;;2.15;;
43327;SDS011;28923;45.412;10.852;2022-10-31T14:53:31;7.47;;;2.70;;
43327;SDS011;28923;45.412;10.852;2022-10-31T14:55:58;6.00;;;2.90;;
43327;SDS011;28923;45.412;10.852;2022-10-31T15:00:58;5.13;;;2.45;;
43327;SDS011;28923;45.412;10.852;2022-10-31T15:05:53;5.20;;;2.15;;
43327;SDS011;28923;45.412;10.852;2022-10-31T15:08:39;5.57;;;2.00;;
43327;SDS011;28923;45.412;10.852;2022-10-31T15:11:14;4.47;;;2.22;;
43327;SDS011;28923;45.412;10.852;2022-10-31T15:13:58;4.22;;;2.00;;
43327;SDS011;28923;45.412;10.852;2022-10-31T15:16:34;3.97;;;2.30;;
43327;SDS011;28923;45.412;10.852;2022-10-31T15:21:26;4.22;;;2.40;;
43327;SDS011;28923;45.412;10.852;2022-10-31T15:23:54;4.28;;;1.95;;
43327;SDS011;28923;45.412;10.852;2022-10-31T15:26:21;5.50;;;2.00;;
43327;SDS011;28923;45.412;10.852;2022-10-31T15:29:00;2.88;;;1.80;;
43327;SDS011;28923;45.412;10.852;2022-10-31T15:31:27;4.18;;;2.22;;
43327;SDS011;28923;45.412;10.852;2022-10-31T15:33:52;5.38;;;2.33;;
43327;SDS011;28923;45.412;10.852;2022-10-31T15:36:23;2.70;;;2.13;;
43327;SDS011;28923;45.412;10.852;2022-10-31T15:38:49;4.05;;;2.22;;
43327;SDS011;28923;45.412;10.852;2022-10-31T15:43:45;3.00;;;2.00;;
43327;SDS011;28923;45.412;10.852;2022-10-31T15:46:11;3.15;;;2.33;;
43327;SDS011;28923;45.412;10.852;2022-10-31T15:48:37;3.38;;;1.85;;
43327;SDS011;28923;45.412;10.852;2022-10-31T15:51:03;3.90;;;2.10;;
43327;SDS011;28923;45.412;10.852;2022-10-31T15:55:59;4.50;;;2.60;;
43327;SDS011;28923;45.412;10.852;2022-10-31T15:58:25;3.17;;;2.22;;
43327;SDS011;28923;45.412;10.852;2022-10-31T16:06:32;5.35;;;2.10;;
43327;SDS011;28923;45.412;10.852;2022-10-31T16:08:58;6.90;;;2.35;;
43327;SDS011;28923;45.412;10.852;2022-10-31T16:11:24;5.10;;;2.33;;
43327;SDS011;28923;45.412;10.852;2022-10-31T16:16:19;4.45;;;2.15;;
43327;SDS011;28923;45.412;10.852;2022-10-31T16:18:48;3.38;;;2.33;;
43327;SDS011;28923;45.412;10.852;2022-10-31T16:21:14;3.25;;;2.00;;
43327;SDS011;28923;45.412;10.852;2022-10-31T16:23:44;5.35;;;2.30;;
43327;SDS011;28923;45.412;10.852;2022-10-31T16:26:13;4.47;;;2.00;;
43327;SDS011;28923;45.412;10.852;2022-10-31T16:28:39;4.60;;;2.40;;
43327;SDS011;28923;45.412;10.852;2022-10-31T16:31:15;7.22;;;2.45;;
43327;SDS011;28923;45.412;10.852;2022-10-31T16:33:40;3.97;;;2.50;;
43327;SDS011;28923;45.412;10.852;2022-10-31T16:38:51;7.50;;;2.45;;
43327;SDS011;28923;45.412;10.852;2022-10-31T16:41:17;4.88;;;2.53;;
43327;SDS011;28923;45.412;10.852;2022-10-31T16:43:42;3.72;;;2.30;;
43327;SDS011;28923;45.412;10.852;2022-10-31T16:46:08;7.40;;;2.78;;
43327;SDS011;28923;45.412;10.852;2022-10-31T16:48:37;5.00;;;2.42;;
43327;SDS011;28923;45.412;10.852;2022-10-31T16:51:03;4.78;;;2.33;;
43327;SDS011;28923;45.412;10.852;2022-10-31T16:53:28;5.65;;;2.35;;
43327;SDS011;28923;45.412;10.852;2022-10-31T16:55:58;5.32;;;2.70;;
43327;SDS011;28923;45.412;10.852;2022-10-31T17:00:49;6.15;;;2.45;;
43327;SDS011;28923;45.412;10.852;2022-10-31T17:03:15;7.32;;;2.83;;
43327;SDS011;28923;45.412;10.852;2022-10-31T17:05:40;5.60;;;3.17;;
43327;SDS011;28923;45.412;10.852;2022-10-31T17:08:05;7.68;;;3.75;;
43327;SDS011;28923;45.412;10.852;2022-10-31T17:10:31;7.50;;;3.28;;
43327;SDS011;28923;45.412;10.852;2022-10-31T17:12:56;7.40;;;3.50;;
43327;SDS011;28923;45.412;10.852;2022-10-31T17:15:24;5.65;;;3.50;;
43327;SDS011;28923;45.412;10.852;2022-10-31T17:17:50;9.07;;;3.30;;
43327;SDS011;28923;45.412;10.852;2022-10-31T17:20:23;5.68;;;3.20;;
43327;SDS011;28923;45.412;10.852;2022-10-31T17:22:49;5.13;;;3.03;;
43327;SDS011;28923;45.412;10.852;2022-10-31T17:25:15;7.10;;;3.50;;
43327;SDS011;28923;45.412;10.852;2022-10-31T17:27:41;6.82;;;3.35;;